sensor_id;sensor_type;location;lat;lon;timestamp;P1;durP1;ratioP1;P2;durP2;ratioP2
6973;SDS011;3527;52.376;8.990;2022-12-10T00:02:49;56.77;;;24.17;;
6973;SDS011;3527;52.376;8.990;2022-12-10T00:05:37;49.23;;;24.40;;
6973;SDS011;3527;52.376;8.990;2022-12-10T00:08:34;62.20;;;26.40;;
6973;SDS011;3527;52.376;8.990;2022-12-10T00:11:23;59.87;;;26.17;;
6973;SDS011;3527;52.376;8.990;2022-12-10T00:14:13;54.93;;;25.73;;
6973;SDS011;3527;52.376;8.990;2022-12-10T00:17:03;66.43;;;27.17;;
6973;SDS011;3527;52.376;8.990;2022-12-10T00:19:58;63.23;;;26.20;;
6973;SDS011;3527;52.376;8.990;2022-12-10T00:22:49;60.80;;;26.83;;
6973;SDS011;3527;52.376;8.990;2022-12-10T00:25:37;64.03;;;26.77;;
6973;SDS011;3527;52.376;8.990;2022-12-10T00:28:27;63.17;;;26.13;;
6973;SDS011;3527;52.376;8.990;2022-12-10T00:31:17;61.50;;;26.53;;
6973;SDS011;3527;52.376;8.990;2022-12-10T00:34:12;68.43;;;27.83;;
6973;SDS011;3527;52.376;8.990;2022-12-10T00:37:01;76.30;;;27.97;;
6973;SDS011;3527;52.376;8.990;2022-12-10T00:39:52;64.97;;;26.70;;
6973;SDS011;3527;52.376;8.990;2022-12-10T00:42:43;63.00;;;26.13;;
6973;SDS011;3527;52.376;8.990;2022-12-10T00:45:31;63.83;;;26.93;;
6973;SDS011;3527;52.376;8.990;2022-12-10T00:48:20;66.90;;;28.10;;
6973;SDS011;3527;52.376;8.990;2022-12-10T00:54:07;67.10;;;28.40;;
6973;SDS011;3527;52.376;8.990;2022-12-10T00:56:56;70.80;;;28.67;;
6973;SDS011;3527;52.376;8.990;2022-12-10T00:59:46;65.33;;;27.87;;
6973;SDS011;3527;52.376;8.990;2022-12-10T01:02:36;70.33;;;28.37;;
6973;SDS011;3527;52.376;8.990;2022-12-10T01:05:25;74.90;;;28.07;;
6973;SDS011;3527;52.376;8.990;2022-12-10T01:08:14;69.40;;;27.57;;
6973;SDS011;3527;52.376;8.990;2022-12-10T01:11:02;77.27;;;30.03;;
6973;SDS011;3527;52.376;8.990;2022-12-10T01:13:51;69.07;;;28.17;;
6973;SDS011;3527;52.376;8.990;2022-12-10T01:16:44;63.97;;;27.33;;
6973;SDS011;3527;52.376;8.990;2022-12-10T01:19:33;67.97;;;29.20;;
6973;SDS011;3527;52.376;8.990;2022-12-10T01:22:22;75.13;;;29.33;;
6973;SDS011;3527;52.376;8.990;2022-12-10T01:25:11;78.90;;;30.37;;
6973;SDS011;3527;52.376;8.990;2022-12-10T01:27:59;80.87;;;29.60;;
6973;SDS011;3527;52.376;8.990;2022-12-10T01:30:49;78.70;;;30.77;;
6973;SDS011;3527;52.376;8.990;2022-12-10T01:33:40;74.30;;;31.00;;
6973;SDS011;3527;52.376;8.990;2022-12-10T01:36:32;73.20;;;30.20;;
6973;SDS011;3527;52.376;8.990;2022-12-10T01:39:22;85.13;;;31.57;;
6973;SDS011;3527;52.376;8.990;2022-12-10T01:42:15;88.33;;;32.80;;
6973;SDS011;3527;52.376;8.990;2022-12-10T01:45:05;76.07;;;29.33;;
6973;SDS011;3527;52.376;8.990;2022-12-10T01:47:56;79.27;;;30.13;;
6973;SDS011;3527;52.376;8.990;2022-12-10T01:50:52;83.87;;;31.43;;
6973;SDS011;3527;52.376;8.990;2022-12-10T01:53:41;98.10;;;31.57;;
6973;SDS011;3527;52.376;8.990;2022-12-10T01:56:31;88.17;;;31.30;;
6973;SDS011;3527;52.376;8.990;2022-12-10T01:59:26;88.13;;;31.67;;
6973;SDS011;3527;52.376;8.990;2022-12-10T02:02:37;81.47;;;30.30;;
6973;SDS011;3527;52.376;8.990;2022-12-10T02:09:11;93.03;;;31.03;;
6973;SDS011;3527;52.376;8.990;2022-12-10T02:15:43;93.63;;;31.37;;
6973;SDS011;3527;52.376;8.990;2022-12-10T02:18:31;95.13;;;33.33;;
6973;SDS011;3527;52.376;8.990;2022-12-10T02:21:32;94.70;;;32.00;;
6973;SDS011;3527;52.376;8.990;2022-12-10T02:24:28;109.77;;;34.63;;
6973;SDS011;3527;52.376;8.990;2022-12-10T02:27:26;112.17;;;35.20;;
6973;SDS011;3527;52.376;8.990;2022-12-10T02:30:20;98.20;;;32.37;;
6973;SDS011;3527;52.376;8.990;2022-12-10T02:33:09;110.10;;;34.47;;
6973;SDS011;3527;52.376;8.990;2022-12-10T02:36:00;89.47;;;31.87;;
6973;SDS011;3527;52.376;8.990;2022-12-10T02:38:50;98.60;;;32.47;;
6973;SDS011;3527;52.376;8.990;2022-12-10T02:41:41;104.83;;;33.10;;
6973;SDS011;3527;52.376;8.990;2022-12-10T02:44:42;97.10;;;33.77;;
6973;SDS011;3527;52.376;8.990;2022-12-10T02:47:33;89.47;;;31.57;;
6973;SDS011;3527;52.376;8.990;2022-12-10T02:50:26;97.73;;;33.20;;
6973;SDS011;3527;52.376;8.990;2022-12-10T02:53:17;100.80;;;33.50;;
6973;SDS011;3527;52.376;8.990;2022-12-10T02:56:30;94.20;;;33.53;;
6973;SDS011;3527;52.376;8.990;2022-12-10T02:59:26;99.83;;;32.80;;
6973;SDS011;3527;52.376;8.990;2022-12-10T03:09:12;101.57;;;32.83;;
6973;SDS011;3527;52.376;8.990;2022-12-10T03:12:13;95.13;;;30.97;;
6973;SDS011;3527;52.376;8.990;2022-12-10T03:15:15;94.90;;;31.63;;
6973;SDS011;3527;52.376;8.990;2022-12-10T03:18:06;101.93;;;34.97;;
6973;SDS011;3527;52.376;8.990;2022-12-10T03:20:57;92.43;;;31.33;;
6973;SDS011;3527;52.376;8.990;2022-12-10T03:23:51;92.47;;;31.53;;
6973;SDS011;3527;52.376;8.990;2022-12-10T03:26:41;97.07;;;31.63;;
6973;SDS011;3527;52.376;8.990;2022-12-10T03:29:36;100.37;;;31.40;;
6973;SDS011;3527;52.376;8.990;2022-12-10T03:32:30;93.23;;;31.40;;
6973;SDS011;3527;52.376;8.990;2022-12-10T03:35:20;96.67;;;31.93;;
6973;SDS011;3527;52.376;8.990;2022-12-10T03:38:12;109.20;;;32.33;;
6973;SDS011;3527;52.376;8.990;2022-12-10T03:41:04;104.77;;;30.70;;
6973;SDS011;3527;52.376;8.990;2022-12-10T03:43:56;104.87;;;31.27;;
6973;SDS011;3527;52.376;8.990;2022-12-10T03:46:46;109.40;;;32.80;;
6973;SDS011;3527;52.376;8.990;2022-12-10T03:49:35;106.53;;;30.37;;
6973;SDS011;3527;52.376;8.990;2022-12-10T03:52:23;125.07;;;34.13;;
6973;SDS011;3527;52.376;8.990;2022-12-10T03:55:17;118.80;;;31.77;;
6973;SDS011;3527;52.376;8.990;2022-12-10T03:58:06;126.27;;;32.67;;
6973;SDS011;3527;52.376;8.990;2022-12-10T04:00:56;112.73;;;31.87;;
6973;SDS011;3527;52.376;8.990;2022-12-10T04:03:45;126.50;;;34.90;;
6973;SDS011;3527;52.376;8.990;2022-12-10T04:06:37;118.57;;;33.57;;
6973;SDS011;3527;52.376;8.990;2022-12-10T04:09:31;121.47;;;33.50;;
6973;SDS011;3527;52.376;8.990;2022-12-10T04:12:21;116.60;;;34.33;;
6973;SDS011;3527;52.376;8.990;2022-12-10T04:15:11;111.40;;;30.90;;
6973;SDS011;3527;52.376;8.990;2022-12-10T04:18:18;119.20;;;33.77;;
6973;SDS011;3527;52.376;8.990;2022-12-10T04:21:06;135.63;;;33.33;;
6973;SDS011;3527;52.376;8.990;2022-12-10T04:24:14;137.83;;;35.27;;
6973;SDS011;3527;52.376;8.990;2022-12-10T04:27:32;123.43;;;33.67;;
6973;SDS011;3527;52.376;8.990;2022-12-10T04:30:27;141.97;;;34.03;;
6973;SDS011;3527;52.376;8.990;2022-12-10T04:33:16;123.13;;;32.27;;
6973;SDS011;3527;52.376;8.990;2022-12-10T04:36:06;115.23;;;31.30;;
6973;SDS011;3527;52.376;8.990;2022-12-10T04:38:55;117.27;;;31.90;;
6973;SDS011;3527;52.376;8.990;2022-12-10T04:41:46;110.33;;;30.67;;
6973;SDS011;3527;52.376;8.990;2022-12-10T04:44:36;121.97;;;32.53;;
6973;SDS011;3527;52.376;8.990;2022-12-10T04:47:25;117.73;;;32.87;;
6973;SDS011;3527;52.376;8.990;2022-12-10T04:50:15;117.87;;;32.93;;
6973;SDS011;3527;52.376;8.990;2022-12-10T04:53:03;112.50;;;31.37;;
6973;SDS011;3527;52.376;8.990;2022-12-10T04:55:51;115.23;;;31.00;;
6973;SDS011;3527;52.376;8.990;2022-12-10T04:58:41;112.70;;;31.83;;
6973;SDS011;3527;52.376;8.990;2022-12-10T05:01:30;136.87;;;34.97;;
6973;SDS011;3527;52.376;8.990;2022-12-10T05:04:19;126.40;;;35.17;;
6973;SDS011;3527;52.376;8.990;2022-12-10T05:07:08;113.10;;;31.90;;
6973;SDS011;3527;52.376;8.990;2022-12-10T05:09:58;123.10;;;33.40;;
6973;SDS011;3527;52.376;8.990;2022-12-10T05:12:49;118.93;;;32.73;;
6973;SDS011;3527;52.376;8.990;2022-12-10T05:15:38;100.43;;;30.97;;
6973;SDS011;3527;52.376;8.990;2022-12-10T05:18:27;107.93;;;31.07;;
6973;SDS011;3527;52.376;8.990;2022-12-10T05:21:18;118.83;;;30.30;;
6973;SDS011;3527;52.376;8.990;2022-12-10T05:24:07;122.53;;;32.73;;
6973;SDS011;3527;52.376;8.990;2022-12-10T05:26:58;118.17;;;33.10;;
6973;SDS011;3527;52.376;8.990;2022-12-10T05:29:49;117.77;;;32.73;;
6973;SDS011;3527;52.376;8.990;2022-12-10T05:32:38;117.63;;;31.70;;
6973;SDS011;3527;52.376;8.990;2022-12-10T05:35:27;130.00;;;35.50;;
6973;SDS011;3527;52.376;8.990;2022-12-10T05:38:16;120.40;;;34.27;;
6973;SDS011;3527;52.376;8.990;2022-12-10T05:41:05;125.43;;;32.70;;
6973;SDS011;3527;52.376;8.990;2022-12-10T05:43:57;138.90;;;34.80;;
6973;SDS011;3527;52.376;8.990;2022-12-10T05:46:51;125.27;;;35.73;;
6973;SDS011;3527;52.376;8.990;2022-12-10T05:49:43;131.50;;;35.07;;
6973;SDS011;3527;52.376;8.990;2022-12-10T05:52:38;121.73;;;32.67;;
6973;SDS011;3527;52.376;8.990;2022-12-10T05:55:26;125.33;;;33.17;;
6973;SDS011;3527;52.376;8.990;2022-12-10T05:58:16;121.80;;;31.87;;
6973;SDS011;3527;52.376;8.990;2022-12-10T06:01:09;126.67;;;32.03;;
6973;SDS011;3527;52.376;8.990;2022-12-10T06:04:15;129.30;;;32.60;;
6973;SDS011;3527;52.376;8.990;2022-12-10T06:07:05;128.20;;;35.00;;
6973;SDS011;3527;52.376;8.990;2022-12-10T06:09:57;120.90;;;34.70;;
6973;SDS011;3527;52.376;8.990;2022-12-10T06:12:47;114.40;;;34.07;;
6973;SDS011;3527;52.376;8.990;2022-12-10T06:15:40;130.33;;;34.63;;
6973;SDS011;3527;52.376;8.990;2022-12-10T06:18:33;151.53;;;37.73;;
6973;SDS011;3527;52.376;8.990;2022-12-10T06:21:24;126.77;;;32.17;;
6973;SDS011;3527;52.376;8.990;2022-12-10T06:24:14;154.20;;;36.57;;
6973;SDS011;3527;52.376;8.990;2022-12-10T06:27:03;141.80;;;35.73;;
6973;SDS011;3527;52.376;8.990;2022-12-10T06:29:52;125.63;;;32.80;;
6973;SDS011;3527;52.376;8.990;2022-12-10T06:32:40;137.43;;;34.47;;
6973;SDS011;3527;52.376;8.990;2022-12-10T06:35:30;130.43;;;35.57;;
6973;SDS011;3527;52.376;8.990;2022-12-10T06:38:18;139.30;;;35.47;;
6973;SDS011;3527;52.376;8.990;2022-12-10T06:41:10;119.97;;;33.13;;
6973;SDS011;3527;52.376;8.990;2022-12-10T06:44:01;136.53;;;33.40;;
6973;SDS011;3527;52.376;8.990;2022-12-10T06:46:49;133.97;;;34.70;;
6973;SDS011;3527;52.376;8.990;2022-12-10T06:49:38;141.60;;;36.37;;
6973;SDS011;3527;52.376;8.990;2022-12-10T06:52:27;120.43;;;34.20;;
6973;SDS011;3527;52.376;8.990;2022-12-10T06:55:17;134.60;;;32.83;;
6973;SDS011;3527;52.376;8.990;2022-12-10T06:58:06;167.50;;;38.07;;
6973;SDS011;3527;52.376;8.990;2022-12-10T07:01:01;144.73;;;37.80;;
6973;SDS011;3527;52.376;8.990;2022-12-10T07:03:55;152.77;;;36.70;;
6973;SDS011;3527;52.376;8.990;2022-12-10T07:06:45;127.40;;;35.53;;
6973;SDS011;3527;52.376;8.990;2022-12-10T07:09:39;131.00;;;34.63;;
6973;SDS011;3527;52.376;8.990;2022-12-10T07:12:28;149.90;;;37.20;;
6973;SDS011;3527;52.376;8.990;2022-12-10T07:15:18;131.37;;;35.20;;
6973;SDS011;3527;52.376;8.990;2022-12-10T07:18:07;130.97;;;35.20;;
6973;SDS011;3527;52.376;8.990;2022-12-10T07:20:56;135.70;;;36.10;;
6973;SDS011;3527;52.376;8.990;2022-12-10T07:23:45;155.63;;;38.03;;
6973;SDS011;3527;52.376;8.990;2022-12-10T07:26:35;147.30;;;38.20;;
6973;SDS011;3527;52.376;8.990;2022-12-10T07:29:26;149.23;;;39.50;;
6973;SDS011;3527;52.376;8.990;2022-12-10T07:32:15;135.43;;;37.17;;
6973;SDS011;3527;52.376;8.990;2022-12-10T07:35:04;141.30;;;36.83;;
6973;SDS011;3527;52.376;8.990;2022-12-10T07:37:53;138.87;;;37.47;;
6973;SDS011;3527;52.376;8.990;2022-12-10T07:40:50;132.77;;;36.43;;
6973;SDS011;3527;52.376;8.990;2022-12-10T07:43:39;130.83;;;34.60;;
6973;SDS011;3527;52.376;8.990;2022-12-10T07:46:30;141.00;;;36.63;;
6973;SDS011;3527;52.376;8.990;2022-12-10T07:49:20;138.97;;;35.93;;
6973;SDS011;3527;52.376;8.990;2022-12-10T07:52:08;135.07;;;35.67;;
6973;SDS011;3527;52.376;8.990;2022-12-10T07:54:57;137.17;;;36.07;;
6973;SDS011;3527;52.376;8.990;2022-12-10T07:57:45;133.87;;;35.93;;
6973;SDS011;3527;52.376;8.990;2022-12-10T08:00:34;149.50;;;38.00;;
6973;SDS011;3527;52.376;8.990;2022-12-10T08:03:23;136.70;;;36.00;;
6973;SDS011;3527;52.376;8.990;2022-12-10T08:06:13;136.27;;;36.83;;
6973;SDS011;3527;52.376;8.990;2022-12-10T08:09:04;135.07;;;38.00;;
6973;SDS011;3527;52.376;8.990;2022-12-10T08:11:52;148.17;;;40.70;;
6973;SDS011;3527;52.376;8.990;2022-12-10T08:14:43;133.93;;;36.70;;
6973;SDS011;3527;52.376;8.990;2022-12-10T08:17:34;140.77;;;38.57;;
6973;SDS011;3527;52.376;8.990;2022-12-10T08:20:23;127.40;;;36.30;;
6973;SDS011;3527;52.376;8.990;2022-12-10T08:23:12;126.77;;;33.27;;
6973;SDS011;3527;52.376;8.990;2022-12-10T08:26:07;129.30;;;36.13;;
6973;SDS011;3527;52.376;8.990;2022-12-10T08:28:58;107.93;;;32.37;;
6973;SDS011;3527;52.376;8.990;2022-12-10T08:31:48;131.30;;;35.67;;
6973;SDS011;3527;52.376;8.990;2022-12-10T08:34:37;129.70;;;36.93;;
6973;SDS011;3527;52.376;8.990;2022-12-10T08:37:26;125.03;;;36.67;;
6973;SDS011;3527;52.376;8.990;2022-12-10T08:40:17;128.03;;;36.43;;
6973;SDS011;3527;52.376;8.990;2022-12-10T08:43:07;128.30;;;35.30;;
6973;SDS011;3527;52.376;8.990;2022-12-10T08:45:57;108.83;;;35.00;;
6973;SDS011;3527;52.376;8.990;2022-12-10T08:48:47;116.70;;;35.30;;
6973;SDS011;3527;52.376;8.990;2022-12-10T08:51:36;118.20;;;35.37;;
6973;SDS011;3527;52.376;8.990;2022-12-10T08:54:24;129.47;;;35.93;;
6973;SDS011;3527;52.376;8.990;2022-12-10T08:57:13;98.40;;;33.73;;
6973;SDS011;3527;52.376;8.990;2022-12-10T09:00:01;114.53;;;33.90;;
6973;SDS011;3527;52.376;8.990;2022-12-10T09:02:51;111.37;;;35.43;;
6973;SDS011;3527;52.376;8.990;2022-12-10T09:05:39;110.13;;;32.53;;
6973;SDS011;3527;52.376;8.990;2022-12-10T09:08:30;108.97;;;34.30;;
6973;SDS011;3527;52.376;8.990;2022-12-10T09:11:29;101.20;;;33.40;;
6973;SDS011;3527;52.376;8.990;2022-12-10T09:14:22;102.33;;;32.77;;
6973;SDS011;3527;52.376;8.990;2022-12-10T09:17:11;100.27;;;32.73;;
6973;SDS011;3527;52.376;8.990;2022-12-10T09:20:01;92.93;;;30.70;;
6973;SDS011;3527;52.376;8.990;2022-12-10T09:22:49;93.37;;;31.57;;
6973;SDS011;3527;52.376;8.990;2022-12-10T09:25:38;86.37;;;30.30;;
6973;SDS011;3527;52.376;8.990;2022-12-10T09:28:26;90.67;;;29.90;;
6973;SDS011;3527;52.376;8.990;2022-12-10T09:31:15;89.83;;;30.73;;
6973;SDS011;3527;52.376;8.990;2022-12-10T09:34:06;96.43;;;31.90;;
6973;SDS011;3527;52.376;8.990;2022-12-10T09:36:58;83.43;;;28.43;;
6973;SDS011;3527;52.376;8.990;2022-12-10T09:39:47;86.70;;;30.27;;
6973;SDS011;3527;52.376;8.990;2022-12-10T09:42:55;81.10;;;31.57;;
6973;SDS011;3527;52.376;8.990;2022-12-10T09:49:42;85.13;;;28.30;;
6973;SDS011;3527;52.376;8.990;2022-12-10T09:52:40;78.30;;;28.63;;
6973;SDS011;3527;52.376;8.990;2022-12-10T09:55:34;80.67;;;28.07;;
6973;SDS011;3527;52.376;8.990;2022-12-10T09:58:26;69.97;;;27.63;;
6973;SDS011;3527;52.376;8.990;2022-12-10T10:01:19;71.57;;;28.03;;
6973;SDS011;3527;52.376;8.990;2022-12-10T10:04:13;65.97;;;26.43;;
6973;SDS011;3527;52.376;8.990;2022-12-10T10:07:02;68.03;;;26.30;;
6973;SDS011;3527;52.376;8.990;2022-12-10T10:09:55;68.10;;;26.10;;
6973;SDS011;3527;52.376;8.990;2022-12-10T10:12:47;69.93;;;28.27;;
6973;SDS011;3527;52.376;8.990;2022-12-10T10:15:39;71.87;;;27.80;;
6973;SDS011;3527;52.376;8.990;2022-12-10T10:18:38;71.73;;;27.47;;
6973;SDS011;3527;52.376;8.990;2022-12-10T10:21:32;70.77;;;27.80;;
6973;SDS011;3527;52.376;8.990;2022-12-10T10:24:33;66.07;;;26.37;;
6973;SDS011;3527;52.376;8.990;2022-12-10T10:27:28;70.07;;;27.87;;
6973;SDS011;3527;52.376;8.990;2022-12-10T10:30:19;61.20;;;27.03;;
6973;SDS011;3527;52.376;8.990;2022-12-10T10:33:10;64.70;;;27.27;;
6973;SDS011;3527;52.376;8.990;2022-12-10T10:36:00;60.90;;;26.47;;
6973;SDS011;3527;52.376;8.990;2022-12-10T10:38:56;70.77;;;26.53;;
6973;SDS011;3527;52.376;8.990;2022-12-10T10:41:56;66.03;;;26.23;;
6973;SDS011;3527;52.376;8.990;2022-12-10T10:44:48;62.40;;;25.63;;
6973;SDS011;3527;52.376;8.990;2022-12-10T10:47:36;63.40;;;26.70;;
6973;SDS011;3527;52.376;8.990;2022-12-10T10:50:25;60.27;;;25.07;;
6973;SDS011;3527;52.376;8.990;2022-12-10T10:53:21;61.20;;;24.93;;
6973;SDS011;3527;52.376;8.990;2022-12-10T10:56:20;60.93;;;24.87;;
6973;SDS011;3527;52.376;8.990;2022-12-10T11:02:16;62.60;;;27.27;;
6973;SDS011;3527;52.376;8.990;2022-12-10T11:05:08;59.23;;;25.97;;
6973;SDS011;3527;52.376;8.990;2022-12-10T11:08:13;58.80;;;25.67;;
6973;SDS011;3527;52.376;8.990;2022-12-10T11:11:06;63.83;;;26.37;;
6973;SDS011;3527;52.376;8.990;2022-12-10T11:17:27;59.67;;;24.90;;
6973;SDS011;3527;52.376;8.990;2022-12-10T11:20:19;58.87;;;27.07;;
6973;SDS011;3527;52.376;8.990;2022-12-10T11:23:10;52.07;;;24.03;;
6973;SDS011;3527;52.376;8.990;2022-12-10T11:29:11;55.03;;;25.03;;
6973;SDS011;3527;52.376;8.990;2022-12-10T11:32:30;54.33;;;24.53;;
6973;SDS011;3527;52.376;8.990;2022-12-10T11:35:40;57.73;;;25.40;;
6973;SDS011;3527;52.376;8.990;2022-12-10T11:38:45;51.80;;;24.60;;
6973;SDS011;3527;52.376;8.990;2022-12-10T11:41:43;55.87;;;23.87;;
6973;SDS011;3527;52.376;8.990;2022-12-10T11:44:43;50.67;;;22.87;;
6973;SDS011;3527;52.376;8.990;2022-12-10T11:47:44;50.43;;;22.03;;
6973;SDS011;3527;52.376;8.990;2022-12-10T11:50:59;50.53;;;22.63;;
6973;SDS011;3527;52.376;8.990;2022-12-10T12:06:08;45.73;;;22.13;;
6973;SDS011;3527;52.376;8.990;2022-12-10T12:09:11;47.87;;;22.37;;
6973;SDS011;3527;52.376;8.990;2022-12-10T12:15:21;51.37;;;24.00;;
6973;SDS011;3527;52.376;8.990;2022-12-10T12:21:10;51.53;;;23.50;;
6973;SDS011;3527;52.376;8.990;2022-12-10T12:24:11;45.77;;;22.60;;
6973;SDS011;3527;52.376;8.990;2022-12-10T12:30:02;46.03;;;23.10;;
6973;SDS011;3527;52.376;8.990;2022-12-10T12:32:58;47.03;;;22.97;;
6973;SDS011;3527;52.376;8.990;2022-12-10T12:36:02;47.70;;;22.10;;
6973;SDS011;3527;52.376;8.990;2022-12-10T12:39:01;45.50;;;22.73;;
6973;SDS011;3527;52.376;8.990;2022-12-10T12:41:57;45.07;;;22.73;;
6973;SDS011;3527;52.376;8.990;2022-12-10T12:45:10;46.07;;;22.97;;
6973;SDS011;3527;52.376;8.990;2022-12-10T12:48:14;43.83;;;22.23;;
6973;SDS011;3527;52.376;8.990;2022-12-10T12:51:10;46.27;;;24.27;;
6973;SDS011;3527;52.376;8.990;2022-12-10T12:54:03;42.23;;;21.90;;
6973;SDS011;3527;52.376;8.990;2022-12-10T12:56:56;45.83;;;21.87;;
6973;SDS011;3527;52.376;8.990;2022-12-10T13:03:06;45.20;;;22.93;;
6973;SDS011;3527;52.376;8.990;2022-12-10T13:17:36;48.30;;;23.63;;
6973;SDS011;3527;52.376;8.990;2022-12-10T13:27:14;47.97;;;22.57;;
6973;SDS011;3527;52.376;8.990;2022-12-10T13:35:27;43.13;;;21.00;;
6973;SDS011;3527;52.376;8.990;2022-12-10T13:38:17;42.67;;;22.10;;
6973;SDS011;3527;52.376;8.990;2022-12-10T13:41:09;44.30;;;21.17;;
6973;SDS011;3527;52.376;8.990;2022-12-10T13:59:22;43.53;;;21.47;;
6973;SDS011;3527;52.376;8.990;2022-12-10T14:08:31;42.30;;;21.13;;
6973;SDS011;3527;52.376;8.990;2022-12-10T14:11:21;40.47;;;22.27;;
6973;SDS011;3527;52.376;8.990;2022-12-10T14:14:13;39.37;;;21.30;;
6973;SDS011;3527;52.376;8.990;2022-12-10T14:17:13;43.13;;;20.00;;
6973;SDS011;3527;52.376;8.990;2022-12-10T14:20:03;36.40;;;18.57;;
6973;SDS011;3527;52.376;8.990;2022-12-10T14:22:54;36.30;;;19.07;;
6973;SDS011;3527;52.376;8.990;2022-12-10T14:26:06;37.77;;;20.43;;
6973;SDS011;3527;52.376;8.990;2022-12-10T14:29:01;40.83;;;20.70;;
6973;SDS011;3527;52.376;8.990;2022-12-10T14:31:55;37.37;;;20.03;;
6973;SDS011;3527;52.376;8.990;2022-12-10T14:34:42;38.80;;;20.67;;
6973;SDS011;3527;52.376;8.990;2022-12-10T14:37:35;38.77;;;20.50;;
6973;SDS011;3527;52.376;8.990;2022-12-10T14:40:27;43.87;;;20.57;;
6973;SDS011;3527;52.376;8.990;2022-12-10T14:43:21;36.97;;;19.73;;
6973;SDS011;3527;52.376;8.990;2022-12-10T14:46:21;42.43;;;21.27;;
6973;SDS011;3527;52.376;8.990;2022-12-10T14:49:13;39.37;;;20.77;;
6973;SDS011;3527;52.376;8.990;2022-12-10T14:52:02;38.40;;;19.93;;
6973;SDS011;3527;52.376;8.990;2022-12-10T14:54:55;41.80;;;19.80;;
6973;SDS011;3527;52.376;8.990;2022-12-10T14:57:44;39.57;;;20.37;;
6973;SDS011;3527;52.376;8.990;2022-12-10T15:00:38;39.13;;;19.93;;
6973;SDS011;3527;52.376;8.990;2022-12-10T15:03:28;43.43;;;20.43;;
6973;SDS011;3527;52.376;8.990;2022-12-10T15:06:19;43.30;;;21.27;;
6973;SDS011;3527;52.376;8.990;2022-12-10T15:09:11;42.40;;;21.77;;
6973;SDS011;3527;52.376;8.990;2022-12-10T15:12:02;39.43;;;20.23;;
6973;SDS011;3527;52.376;8.990;2022-12-10T15:14:49;45.67;;;21.63;;
6973;SDS011;3527;52.376;8.990;2022-12-10T15:17:45;38.90;;;21.40;;
6973;SDS011;3527;52.376;8.990;2022-12-10T15:20:50;45.03;;;22.30;;
6973;SDS011;3527;52.376;8.990;2022-12-10T15:23:39;45.10;;;22.10;;
6973;SDS011;3527;52.376;8.990;2022-12-10T15:26:32;44.80;;;22.47;;
6973;SDS011;3527;52.376;8.990;2022-12-10T15:32:15;47.70;;;22.57;;
6973;SDS011;3527;52.376;8.990;2022-12-10T15:35:10;44.07;;;22.73;;
6973;SDS011;3527;52.376;8.990;2022-12-10T15:38:04;47.97;;;22.67;;
6973;SDS011;3527;52.376;8.990;2022-12-10T15:40:51;42.63;;;22.10;;
6973;SDS011;3527;52.376;8.990;2022-12-10T15:43:49;43.03;;;22.80;;
6973;SDS011;3527;52.376;8.990;2022-12-10T15:46:47;41.57;;;22.37;;
6973;SDS011;3527;52.376;8.990;2022-12-10T15:49:38;45.80;;;23.20;;
6973;SDS011;3527;52.376;8.990;2022-12-10T15:52:26;45.83;;;22.97;;
6973;SDS011;3527;52.376;8.990;2022-12-10T15:55:15;40.50;;;21.53;;
6973;SDS011;3527;52.376;8.990;2022-12-10T15:58:04;40.80;;;22.07;;
6973;SDS011;3527;52.376;8.990;2022-12-10T16:00:56;42.40;;;22.67;;
6973;SDS011;3527;52.376;8.990;2022-12-10T16:03:44;49.17;;;23.20;;
6973;SDS011;3527;52.376;8.990;2022-12-10T16:06:31;46.97;;;23.90;;
6973;SDS011;3527;52.376;8.990;2022-12-10T16:09:18;43.73;;;21.27;;
6973;SDS011;3527;52.376;8.990;2022-12-10T16:12:06;46.07;;;22.77;;
6973;SDS011;3527;52.376;8.990;2022-12-10T16:14:57;42.63;;;23.13;;
6973;SDS011;3527;52.376;8.990;2022-12-10T16:17:46;47.37;;;24.20;;
6973;SDS011;3527;52.376;8.990;2022-12-10T16:20:33;44.97;;;23.23;;
6973;SDS011;3527;52.376;8.990;2022-12-10T16:23:21;46.33;;;23.57;;
6973;SDS011;3527;52.376;8.990;2022-12-10T16:26:15;42.27;;;21.30;;
6973;SDS011;3527;52.376;8.990;2022-12-10T16:29:04;43.40;;;21.93;;
6973;SDS011;3527;52.376;8.990;2022-12-10T16:31:51;49.77;;;22.93;;
6973;SDS011;3527;52.376;8.990;2022-12-10T16:34:40;47.23;;;23.20;;
6973;SDS011;3527;52.376;8.990;2022-12-10T16:37:29;48.07;;;23.17;;
6973;SDS011;3527;52.376;8.990;2022-12-10T16:40:22;42.90;;;21.37;;
6973;SDS011;3527;52.376;8.990;2022-12-10T16:43:18;42.20;;;21.97;;
6973;SDS011;3527;52.376;8.990;2022-12-10T16:46:10;44.80;;;22.87;;
6973;SDS011;3527;52.376;8.990;2022-12-10T16:49:00;48.67;;;22.93;;
6973;SDS011;3527;52.376;8.990;2022-12-10T16:51:49;44.57;;;23.53;;
6973;SDS011;3527;52.376;8.990;2022-12-10T16:54:39;43.20;;;21.67;;
6973;SDS011;3527;52.376;8.990;2022-12-10T16:57:30;42.10;;;21.60;;
6973;SDS011;3527;52.376;8.990;2022-12-10T17:00:23;43.67;;;22.10;;
6973;SDS011;3527;52.376;8.990;2022-12-10T17:03:18;45.50;;;23.53;;
6973;SDS011;3527;52.376;8.990;2022-12-10T17:06:12;46.20;;;23.33;;
6973;SDS011;3527;52.376;8.990;2022-12-10T17:09:05;46.00;;;23.23;;
6973;SDS011;3527;52.376;8.990;2022-12-10T17:11:56;43.90;;;23.47;;
6973;SDS011;3527;52.376;8.990;2022-12-10T17:14:46;43.83;;;21.57;;
6973;SDS011;3527;52.376;8.990;2022-12-10T17:17:35;44.87;;;22.67;;
6973;SDS011;3527;52.376;8.990;2022-12-10T17:20:23;43.23;;;22.23;;
6973;SDS011;3527;52.376;8.990;2022-12-10T17:23:13;45.10;;;22.03;;
6973;SDS011;3527;52.376;8.990;2022-12-10T17:26:03;44.63;;;22.03;;
6973;SDS011;3527;52.376;8.990;2022-12-10T17:28:53;46.03;;;22.77;;
6973;SDS011;3527;52.376;8.990;2022-12-10T17:31:47;43.77;;;22.43;;
6973;SDS011;3527;52.376;8.990;2022-12-10T17:34:35;44.90;;;23.00;;
6973;SDS011;3527;52.376;8.990;2022-12-10T17:37:25;39.40;;;22.37;;
6973;SDS011;3527;52.376;8.990;2022-12-10T17:40:18;46.97;;;22.57;;
6973;SDS011;3527;52.376;8.990;2022-12-10T17:43:06;43.03;;;22.33;;
6973;SDS011;3527;52.376;8.990;2022-12-10T17:45:55;42.13;;;22.40;;
6973;SDS011;3527;52.376;8.990;2022-12-10T17:48:44;45.37;;;21.40;;
6973;SDS011;3527;52.376;8.990;2022-12-10T17:51:31;43.13;;;23.23;;
6973;SDS011;3527;52.376;8.990;2022-12-10T17:54:18;42.17;;;23.60;;
6973;SDS011;3527;52.376;8.990;2022-12-10T17:57:10;42.37;;;22.87;;
6973;SDS011;3527;52.376;8.990;2022-12-10T18:00:08;45.90;;;23.47;;
6973;SDS011;3527;52.376;8.990;2022-12-10T18:03:00;47.33;;;21.93;;
6973;SDS011;3527;52.376;8.990;2022-12-10T18:05:47;41.10;;;22.57;;
6973;SDS011;3527;52.376;8.990;2022-12-10T18:08:34;42.93;;;21.40;;
6973;SDS011;3527;52.376;8.990;2022-12-10T18:11:23;45.10;;;22.83;;
6973;SDS011;3527;52.376;8.990;2022-12-10T18:14:18;45.30;;;23.90;;
6973;SDS011;3527;52.376;8.990;2022-12-10T18:17:11;42.70;;;21.43;;
6973;SDS011;3527;52.376;8.990;2022-12-10T18:20:00;42.50;;;21.53;;
6973;SDS011;3527;52.376;8.990;2022-12-10T18:22:47;42.80;;;22.33;;
6973;SDS011;3527;52.376;8.990;2022-12-10T18:25:35;43.50;;;22.57;;
6973;SDS011;3527;52.376;8.990;2022-12-10T18:31:14;40.77;;;21.53;;
6973;SDS011;3527;52.376;8.990;2022-12-10T18:34:06;42.27;;;22.23;;
6973;SDS011;3527;52.376;8.990;2022-12-10T18:36:55;42.57;;;21.73;;
6973;SDS011;3527;52.376;8.990;2022-12-10T18:39:43;47.40;;;21.77;;
6973;SDS011;3527;52.376;8.990;2022-12-10T18:42:30;46.97;;;22.53;;
6973;SDS011;3527;52.376;8.990;2022-12-10T18:45:18;40.67;;;21.50;;
6973;SDS011;3527;52.376;8.990;2022-12-10T18:48:06;45.67;;;23.23;;
6973;SDS011;3527;52.376;8.990;2022-12-10T18:50:53;44.60;;;23.40;;
6973;SDS011;3527;52.376;8.990;2022-12-10T18:53:41;46.40;;;23.57;;
6973;SDS011;3527;52.376;8.990;2022-12-10T18:56:30;42.30;;;23.30;;
6973;SDS011;3527;52.376;8.990;2022-12-10T18:59:18;46.43;;;22.83;;